메인 페이지
METAR-TAF:

METAR-TAF

공항 :

Trenton-Mercer Airport

트렌턴, 뉴저지, 미국

위도: 40-16-35N, 경도: 074-48-59W, 고도: 64m

현재 날씨관측

예보는 48분 전, 23:53시(UTC)에 발표되었습니다.
무풍
온도 8°C
습도 42%
기압 1010 hPa
시정: 16.1km
맑음

METAR: KTTN 032353Z 00000KT 10SM CLR 08/M04 A2983 RMK AO2 SLP091 T00781039 10111 20078 $

시각: 19:41 (00:41 UTC)

예보

예보는 1 시간 21분 전, 23:20시(UTC)에 발표되었습니다.
예보 대상 시간: 04일 00시부터 04일 24시까지 (UTC)
5kt
시정: 10km
고도 7000ft 상공 구름 조금
04일 0300시부터 (UTC)
북서6kt
시정: 10km
고도 6000ft 상공 구름 보통
04일 1400시부터 (UTC)
북서13kt, 순간 최대 풍속 23kt
시정: 10km
고도 4500ft 상공 구름 보통
04일 2300시부터 (UTC)
북서11kt
시정: 10km
고도 4000ft 상공 구름 조금

TAF: KTTN 032320Z 0400/0424 26005KT P6SM FEW070 FM040300 32006KT P6SM SCT060 FM041400 32013G23KT P6SM SCT045 FM042300 31011KT P6SM FEW040

4,000개 이상의 공항 관측 자료 및 예보 (METAR 및 TAF 보고).

지도상에서 검색 가능한 기상관측소가 노란 점과 빨간 점으로 표시되어 있습니다.

기상관측소 명을 보려면 표시 위로 마우스를 이동하세요.

날씨 관측과 예보를 보려면 클릭하세요.

지도 변경 : 확대하려면 엑스 표시가 있는 녹색 버튼, 축소하려면 빼기 표시가 있는 녹색 버튼, 다음 페이지의 지도를 보려면 녹색 화살표를 클릭하세요.


METAR-TAF: